This is the latest recevied weather packets stored in our database for station/object DK4MDA-13. If no packets are shown the sender has not sent any weather packets the latest 1 day(s).
| Time | Temp. | Humidity | Pressure | Rain* | Wind** | Luminosity | Snow |
|---|---|---|---|---|---|---|---|
| 1836274620 | 13.89° C | 85% | 1017.6 hPa | 0 mm | 0.89 m/s, 148° | - | - |
| 1836274469 | 13.89° C | 87% | 1017.5 hPa | 0 mm | 1.34 m/s, 156° | - | - |
| 1836274319 | 13.89° C | 85% | 1017.6 hPa | 0 mm | 0 m/s | - | - |
| 1836274169 | 13.89° C | 86% | 1017.4 hPa | 0 mm | 1.34 m/s, 144° | - | - |
| 1836274020 | 13.89° C | 85% | 1017.7 hPa | 0 mm | 0 m/s | - | - |
| 1778013428 | 12.22° C | 90% | 1007.5 hPa | 0 mm | 3.58 m/s, 26° | - | - |
| 1778013128 | 12.22° C | 90% | 1007.8 hPa | 0 mm | 3.13 m/s, 31° | - | - |
| 1778012828 | 12.22° C | 90% | 1007.6 hPa | 0 mm | 3.13 m/s, 17° | - | - |
| 1778012528 | 12.22° C | 90% | 1007.7 hPa | 0 mm | 3.58 m/s, 21° | - | - |
| 1778012228 | 12.22° C | 90% | 1007.6 hPa | 0 mm | 4.02 m/s, 26° | - | - |
| 1778011928 | 12.78° C | 90% | 1007.6 hPa | 0 mm | 4.02 m/s, 339° | - | - |
| 1778011628 | 12.78° C | 90% | 1007.7 hPa | 0 mm | 4.02 m/s, 26° | - | - |
| 1778011328 | 12.78° C | 89% | 1007.7 hPa | 0 mm | 4.02 m/s, 26° | - | - |
| 1778011028 | 12.78° C | 89% | 1007.6 hPa | 0 mm | 3.58 m/s, 26° | - | - |
| 1778010728 | 12.78° C | 89% | 1007.6 hPa | 0 mm | 3.58 m/s, 26° | - | - |
| 1778010428 | 12.78° C | 89% | 1007.6 hPa | 0 mm | 3.58 m/s, 39° | - | - |
| 1778010128 | 12.78° C | 89% | 1007.6 hPa | 0 mm | 3.58 m/s, 356° | - | - |
| 1778009828 | 12.78° C | 88% | 1007.7 hPa | 0 mm | 3.13 m/s, 17° | - | - |
| 1778009528 | 13.33° C | 89% | 1007.7 hPa | 0 mm | 3.13 m/s, 354° | - | - |
| 1778009228 | 13.33° C | 88% | 1007.7 hPa | 0 mm | 3.58 m/s, 31° | - | - |
| 1778008928 | 13.33° C | 88% | 1007.8 hPa | 0 mm | 3.13 m/s, 21° | - | - |
| 1778008628 | 13.33° C | 88% | 1007.7 hPa | 0 mm | 2.68 m/s, 35° | - | - |
| 1778008328 | 13.33° C | 88% | 1007.7 hPa | 0 mm | 3.13 m/s, 39° | - | - |
| 1778008028 | 13.33° C | 88% | 1007.7 hPa | 0 mm | 3.58 m/s, 21° | - | - |
| 1778007728 | 13.33° C | 88% | 1007.7 hPa | 0 mm | 4.02 m/s, 26° | - | - |
* Rain latest hour (hover to see other rain measurements)
** Current wind speed in m/s (hover to see current wind gust speed)